sensor_id;sensor_type;location;lat;lon;timestamp;P1;durP1;ratioP1;P2;durP2;ratioP2
33403;SDS011;19751;40.274;18.268;2023-03-01T00:01:49;16.50;;;5.60;;
33403;SDS011;19751;40.274;18.268;2023-03-01T00:04:14;29.83;;;6.95;;
33403;SDS011;19751;40.274;18.268;2023-03-01T00:06:40;24.52;;;6.50;;
33403;SDS011;19751;40.274;18.268;2023-03-01T00:09:08;28.23;;;7.22;;
33403;SDS011;19751;40.274;18.268;2023-03-01T00:11:34;25.38;;;6.38;;
33403;SDS011;19751;40.274;18.268;2023-03-01T00:14:00;19.67;;;6.70;;
33403;SDS011;19751;40.274;18.268;2023-03-01T00:16:30;21.67;;;6.13;;
33403;SDS011;19751;40.274;18.268;2023-03-01T00:19:00;21.13;;;6.63;;
33403;SDS011;19751;40.274;18.268;2023-03-01T00:21:27;27.67;;;6.03;;
33403;SDS011;19751;40.274;18.268;2023-03-01T00:23:53;21.83;;;5.78;;
33403;SDS011;19751;40.274;18.268;2023-03-01T00:26:19;17.50;;;6.38;;
33403;SDS011;19751;40.274;18.268;2023-03-01T00:28:46;16.67;;;5.78;;
33403;SDS011;19751;40.274;18.268;2023-03-01T00:31:13;24.13;;;5.93;;
33403;SDS011;19751;40.274;18.268;2023-03-01T00:33:41;26.65;;;6.88;;
33403;SDS011;19751;40.274;18.268;2023-03-01T00:36:07;31.05;;;9.13;;
33403;SDS011;19751;40.274;18.268;2023-03-01T00:38:34;21.83;;;5.90;;
33403;SDS011;19751;40.274;18.268;2023-03-01T00:41:04;24.75;;;8.38;;
33403;SDS011;19751;40.274;18.268;2023-03-01T00:43:34;27.30;;;7.90;;
33403;SDS011;19751;40.274;18.268;2023-03-01T00:46:02;23.42;;;7.30;;
33403;SDS011;19751;40.274;18.268;2023-03-01T00:48:29;27.50;;;7.88;;
33403;SDS011;19751;40.274;18.268;2023-03-01T00:50:54;23.63;;;7.32;;
33403;SDS011;19751;40.274;18.268;2023-03-01T00:53:20;12.20;;;4.78;;
33403;SDS011;19751;40.274;18.268;2023-03-01T00:55:45;19.10;;;5.60;;
33403;SDS011;19751;40.274;18.268;2023-03-01T00:58:11;19.25;;;6.55;;
33403;SDS011;19751;40.274;18.268;2023-03-01T01:00:36;21.95;;;6.53;;
33403;SDS011;19751;40.274;18.268;2023-03-01T01:03:02;21.73;;;5.20;;
33403;SDS011;19751;40.274;18.268;2023-03-01T01:05:27;22.50;;;6.03;;
33403;SDS011;19751;40.274;18.268;2023-03-01T01:07:53;20.15;;;4.82;;
33403;SDS011;19751;40.274;18.268;2023-03-01T01:10:18;20.80;;;5.57;;
33403;SDS011;19751;40.274;18.268;2023-03-01T01:12:44;23.30;;;6.78;;
33403;SDS011;19751;40.274;18.268;2023-03-01T01:15:10;19.23;;;4.85;;
33403;SDS011;19751;40.274;18.268;2023-03-01T01:17:39;16.67;;;4.40;;
33403;SDS011;19751;40.274;18.268;2023-03-01T01:20:05;15.27;;;5.63;;
33403;SDS011;19751;40.274;18.268;2023-03-01T01:22:31;12.63;;;4.38;;
33403;SDS011;19751;40.274;18.268;2023-03-01T01:24:57;17.70;;;5.82;;
33403;SDS011;19751;40.274;18.268;2023-03-01T01:27:22;16.50;;;4.43;;
33403;SDS011;19751;40.274;18.268;2023-03-01T01:29:48;15.15;;;4.05;;
33403;SDS011;19751;40.274;18.268;2023-03-01T01:32:13;16.15;;;3.78;;
33403;SDS011;19751;40.274;18.268;2023-03-01T01:34:39;14.35;;;3.60;;
33403;SDS011;19751;40.274;18.268;2023-03-01T01:37:04;24.90;;;5.55;;
33403;SDS011;19751;40.274;18.268;2023-03-01T01:39:33;12.45;;;3.92;;
33403;SDS011;19751;40.274;18.268;2023-03-01T01:41:59;14.75;;;4.35;;
33403;SDS011;19751;40.274;18.268;2023-03-01T01:44:26;14.63;;;5.30;;
33403;SDS011;19751;40.274;18.268;2023-03-01T01:49:47;12.02;;;3.42;;
33403;SDS011;19751;40.274;18.268;2023-03-01T01:52:22;14.05;;;3.80;;
33403;SDS011;19751;40.274;18.268;2023-03-01T01:57:49;17.33;;;3.35;;
33403;SDS011;19751;40.274;18.268;2023-03-01T02:00:22;12.52;;;5.50;;
33403;SDS011;19751;40.274;18.268;2023-03-01T02:02:56;14.15;;;3.85;;
33403;SDS011;19751;40.274;18.268;2023-03-01T02:08:03;17.67;;;4.30;;
33403;SDS011;19751;40.274;18.268;2023-03-01T02:10:29;17.02;;;4.82;;
33403;SDS011;19751;40.274;18.268;2023-03-01T02:13:01;13.20;;;4.28;;
33403;SDS011;19751;40.274;18.268;2023-03-01T02:15:27;15.50;;;4.93;;
33403;SDS011;19751;40.274;18.268;2023-03-01T02:17:57;15.00;;;3.72;;
33403;SDS011;19751;40.274;18.268;2023-03-01T02:20:28;16.25;;;3.78;;
33403;SDS011;19751;40.274;18.268;2023-03-01T02:22:59;25.98;;;5.88;;
33403;SDS011;19751;40.274;18.268;2023-03-01T02:28:36;17.98;;;5.40;;
33403;SDS011;19751;40.274;18.268;2023-03-01T02:31:04;26.00;;;6.80;;
33403;SDS011;19751;40.274;18.268;2023-03-01T02:33:50;27.38;;;5.25;;
33403;SDS011;19751;40.274;18.268;2023-03-01T02:36:19;31.45;;;14.00;;
33403;SDS011;19751;40.274;18.268;2023-03-01T02:38:47;65.43;;;26.08;;
33403;SDS011;19751;40.274;18.268;2023-03-01T02:41:15;64.28;;;29.45;;
33403;SDS011;19751;40.274;18.268;2023-03-01T02:43:42;61.63;;;23.58;;
33403;SDS011;19751;40.274;18.268;2023-03-01T02:46:14;48.22;;;15.20;;
33403;SDS011;19751;40.274;18.268;2023-03-01T02:48:44;24.30;;;11.25;;
33403;SDS011;19751;40.274;18.268;2023-03-01T02:51:31;29.23;;;8.90;;
33403;SDS011;19751;40.274;18.268;2023-03-01T02:56:36;21.02;;;6.72;;
33403;SDS011;19751;40.274;18.268;2023-03-01T02:59:02;29.42;;;6.35;;
33403;SDS011;19751;40.274;18.268;2023-03-01T03:01:28;26.13;;;7.30;;
33403;SDS011;19751;40.274;18.268;2023-03-01T03:04:08;29.67;;;10.80;;
33403;SDS011;19751;40.274;18.268;2023-03-01T03:06:36;25.38;;;9.63;;
33403;SDS011;19751;40.274;18.268;2023-03-01T03:09:03;41.92;;;11.45;;
33403;SDS011;19751;40.274;18.268;2023-03-01T03:11:29;43.03;;;11.20;;
33403;SDS011;19751;40.274;18.268;2023-03-01T03:13:55;32.45;;;10.50;;
33403;SDS011;19751;40.274;18.268;2023-03-01T03:16:20;34.92;;;10.82;;
33403;SDS011;19751;40.274;18.268;2023-03-01T03:18:47;34.67;;;10.88;;
33403;SDS011;19751;40.274;18.268;2023-03-01T03:21:13;28.42;;;10.45;;
33403;SDS011;19751;40.274;18.268;2023-03-01T03:23:39;52.15;;;15.30;;
33403;SDS011;19751;40.274;18.268;2023-03-01T03:26:05;40.85;;;14.02;;
33403;SDS011;19751;40.274;18.268;2023-03-01T03:28:34;40.92;;;14.60;;
33403;SDS011;19751;40.274;18.268;2023-03-01T03:31:00;41.85;;;14.98;;
33403;SDS011;19751;40.274;18.268;2023-03-01T03:33:29;36.42;;;14.43;;
33403;SDS011;19751;40.274;18.268;2023-03-01T03:35:55;44.80;;;15.18;;
33403;SDS011;19751;40.274;18.268;2023-03-01T03:38:21;31.58;;;14.02;;
33403;SDS011;19751;40.274;18.268;2023-03-01T03:40:48;40.20;;;12.88;;
33403;SDS011;19751;40.274;18.268;2023-03-01T03:43:16;36.60;;;12.68;;
33403;SDS011;19751;40.274;18.268;2023-03-01T03:45:43;35.53;;;12.10;;
33403;SDS011;19751;40.274;18.268;2023-03-01T03:48:10;27.50;;;11.68;;
33403;SDS011;19751;40.274;18.268;2023-03-01T03:50:36;42.97;;;15.13;;
33403;SDS011;19751;40.274;18.268;2023-03-01T03:53:04;29.05;;;14.13;;
33403;SDS011;19751;40.274;18.268;2023-03-01T03:55:31;40.60;;;13.15;;
33403;SDS011;19751;40.274;18.268;2023-03-01T03:57:59;42.30;;;14.85;;
33403;SDS011;19751;40.274;18.268;2023-03-01T04:00:31;38.78;;;15.15;;
33403;SDS011;19751;40.274;18.268;2023-03-01T04:02:58;43.40;;;14.95;;
33403;SDS011;19751;40.274;18.268;2023-03-01T04:05:24;42.60;;;14.57;;
33403;SDS011;19751;40.274;18.268;2023-03-01T04:07:50;37.78;;;14.00;;
33403;SDS011;19751;40.274;18.268;2023-03-01T04:10:25;36.15;;;15.52;;
33403;SDS011;19751;40.274;18.268;2023-03-01T04:12:51;40.20;;;15.63;;
33403;SDS011;19751;40.274;18.268;2023-03-01T04:15:17;40.85;;;15.30;;
33403;SDS011;19751;40.274;18.268;2023-03-01T04:17:44;47.78;;;16.48;;
33403;SDS011;19751;40.274;18.268;2023-03-01T04:20:15;49.10;;;17.23;;
33403;SDS011;19751;40.274;18.268;2023-03-01T04:22:43;41.15;;;17.35;;
33403;SDS011;19751;40.274;18.268;2023-03-01T04:25:12;40.17;;;15.20;;
33403;SDS011;19751;40.274;18.268;2023-03-01T04:27:39;38.47;;;16.17;;
33403;SDS011;19751;40.274;18.268;2023-03-01T04:30:06;43.47;;;16.45;;
33403;SDS011;19751;40.274;18.268;2023-03-01T04:32:32;37.20;;;15.32;;
33403;SDS011;19751;40.274;18.268;2023-03-01T04:34:58;44.95;;;17.08;;
33403;SDS011;19751;40.274;18.268;2023-03-01T04:37:23;39.15;;;16.65;;
33403;SDS011;19751;40.274;18.268;2023-03-01T04:39:49;46.20;;;18.92;;
33403;SDS011;19751;40.274;18.268;2023-03-01T04:42:15;44.60;;;15.82;;
33403;SDS011;19751;40.274;18.268;2023-03-01T04:44:41;44.00;;;17.10;;
33403;SDS011;19751;40.274;18.268;2023-03-01T04:47:07;46.47;;;16.50;;
33403;SDS011;19751;40.274;18.268;2023-03-01T04:49:33;43.88;;;16.38;;
33403;SDS011;19751;40.274;18.268;2023-03-01T04:51:58;43.03;;;16.60;;
33403;SDS011;19751;40.274;18.268;2023-03-01T04:54:27;46.10;;;17.52;;
33403;SDS011;19751;40.274;18.268;2023-03-01T04:56:55;36.90;;;14.88;;
33403;SDS011;19751;40.274;18.268;2023-03-01T04:59:21;39.80;;;16.40;;
33403;SDS011;19751;40.274;18.268;2023-03-01T05:01:48;41.30;;;16.73;;
33403;SDS011;19751;40.274;18.268;2023-03-01T05:04:17;42.20;;;17.13;;
33403;SDS011;19751;40.274;18.268;2023-03-01T05:06:43;44.25;;;18.00;;
33403;SDS011;19751;40.274;18.268;2023-03-01T05:09:09;42.90;;;15.90;;
33403;SDS011;19751;40.274;18.268;2023-03-01T05:11:36;38.88;;;17.33;;
33403;SDS011;19751;40.274;18.268;2023-03-01T05:14:02;41.67;;;17.17;;
33403;SDS011;19751;40.274;18.268;2023-03-01T05:16:29;43.92;;;17.77;;
33403;SDS011;19751;40.274;18.268;2023-03-01T05:18:56;49.05;;;17.92;;
33403;SDS011;19751;40.274;18.268;2023-03-01T05:21:21;39.85;;;17.38;;
33403;SDS011;19751;40.274;18.268;2023-03-01T05:23:47;46.60;;;18.88;;
33403;SDS011;19751;40.274;18.268;2023-03-01T05:26:14;49.10;;;20.05;;
33403;SDS011;19751;40.274;18.268;2023-03-01T05:28:40;47.63;;;18.35;;
33403;SDS011;19751;40.274;18.268;2023-03-01T05:31:06;52.97;;;18.63;;
33403;SDS011;19751;40.274;18.268;2023-03-01T05:33:37;42.05;;;19.27;;
33403;SDS011;19751;40.274;18.268;2023-03-01T05:36:05;35.55;;;18.48;;
33403;SDS011;19751;40.274;18.268;2023-03-01T05:38:32;49.03;;;18.95;;
33403;SDS011;19751;40.274;18.268;2023-03-01T05:40:58;42.00;;;17.83;;
33403;SDS011;19751;40.274;18.268;2023-03-01T05:43:24;42.60;;;19.77;;
33403;SDS011;19751;40.274;18.268;2023-03-01T05:45:50;44.92;;;17.63;;
33403;SDS011;19751;40.274;18.268;2023-03-01T05:48:16;42.20;;;19.75;;
33403;SDS011;19751;40.274;18.268;2023-03-01T05:50:42;49.00;;;18.95;;
33403;SDS011;19751;40.274;18.268;2023-03-01T05:53:14;41.58;;;18.85;;
33403;SDS011;19751;40.274;18.268;2023-03-01T05:55:43;48.28;;;18.85;;
33403;SDS011;19751;40.274;18.268;2023-03-01T05:58:10;50.00;;;20.58;;
33403;SDS011;19751;40.274;18.268;2023-03-01T06:00:39;49.72;;;19.95;;
33403;SDS011;19751;40.274;18.268;2023-03-01T06:03:04;51.00;;;21.83;;
33403;SDS011;19751;40.274;18.268;2023-03-01T06:05:30;46.65;;;20.65;;
33403;SDS011;19751;40.274;18.268;2023-03-01T06:07:58;47.83;;;21.30;;
33403;SDS011;19751;40.274;18.268;2023-03-01T06:10:24;45.30;;;18.05;;
33403;SDS011;19751;40.274;18.268;2023-03-01T06:12:50;39.83;;;18.90;;
33403;SDS011;19751;40.274;18.268;2023-03-01T06:15:16;42.80;;;18.42;;
33403;SDS011;19751;40.274;18.268;2023-03-01T06:17:43;55.75;;;18.98;;
33403;SDS011;19751;40.274;18.268;2023-03-01T06:20:11;49.70;;;20.33;;
33403;SDS011;19751;40.274;18.268;2023-03-01T06:22:41;53.83;;;20.77;;
33403;SDS011;19751;40.274;18.268;2023-03-01T06:25:08;53.75;;;19.30;;
33403;SDS011;19751;40.274;18.268;2023-03-01T06:27:39;47.40;;;20.70;;
33403;SDS011;19751;40.274;18.268;2023-03-01T06:30:05;53.85;;;20.67;;
33403;SDS011;19751;40.274;18.268;2023-03-01T06:32:32;58.28;;;22.33;;
33403;SDS011;19751;40.274;18.268;2023-03-01T06:34:58;52.28;;;21.77;;
33403;SDS011;19751;40.274;18.268;2023-03-01T06:37:27;51.65;;;24.52;;
33403;SDS011;19751;40.274;18.268;2023-03-01T06:39:52;50.53;;;20.70;;
33403;SDS011;19751;40.274;18.268;2023-03-01T06:42:18;52.72;;;22.15;;
33403;SDS011;19751;40.274;18.268;2023-03-01T06:44:44;56.35;;;21.67;;
33403;SDS011;19751;40.274;18.268;2023-03-01T06:47:09;49.10;;;19.55;;
33403;SDS011;19751;40.274;18.268;2023-03-01T06:49:35;52.00;;;22.00;;
33403;SDS011;19751;40.274;18.268;2023-03-01T06:52:00;53.28;;;22.05;;
33403;SDS011;19751;40.274;18.268;2023-03-01T06:54:26;57.83;;;22.27;;
33403;SDS011;19751;40.274;18.268;2023-03-01T06:56:51;67.72;;;25.10;;
33403;SDS011;19751;40.274;18.268;2023-03-01T06:59:17;62.90;;;23.55;;
33403;SDS011;19751;40.274;18.268;2023-03-01T07:01:43;63.35;;;23.33;;
33403;SDS011;19751;40.274;18.268;2023-03-01T07:04:09;61.78;;;24.05;;
33403;SDS011;19751;40.274;18.268;2023-03-01T07:06:35;49.78;;;22.40;;
33403;SDS011;19751;40.274;18.268;2023-03-01T07:09:01;61.30;;;23.05;;
33403;SDS011;19751;40.274;18.268;2023-03-01T07:11:27;64.07;;;23.95;;
33403;SDS011;19751;40.274;18.268;2023-03-01T07:13:52;51.67;;;22.70;;
33403;SDS011;19751;40.274;18.268;2023-03-01T07:16:18;69.97;;;25.80;;
33403;SDS011;19751;40.274;18.268;2023-03-01T07:18:45;52.88;;;23.65;;
33403;SDS011;19751;40.274;18.268;2023-03-01T07:21:12;66.45;;;25.73;;
33403;SDS011;19751;40.274;18.268;2023-03-01T07:23:39;63.15;;;25.52;;
33403;SDS011;19751;40.274;18.268;2023-03-01T07:26:05;55.35;;;22.65;;
33403;SDS011;19751;40.274;18.268;2023-03-01T07:28:30;65.60;;;23.75;;
33403;SDS011;19751;40.274;18.268;2023-03-01T07:31:00;54.97;;;24.70;;
33403;SDS011;19751;40.274;18.268;2023-03-01T07:33:26;58.40;;;23.33;;
33403;SDS011;19751;40.274;18.268;2023-03-01T07:35:58;61.85;;;22.70;;
33403;SDS011;19751;40.274;18.268;2023-03-01T07:38:25;69.40;;;26.58;;
33403;SDS011;19751;40.274;18.268;2023-03-01T07:40:51;51.28;;;22.63;;
33403;SDS011;19751;40.274;18.268;2023-03-01T07:43:17;60.25;;;23.17;;
33403;SDS011;19751;40.274;18.268;2023-03-01T07:45:42;55.67;;;22.95;;
33403;SDS011;19751;40.274;18.268;2023-03-01T07:48:08;60.25;;;23.35;;
33403;SDS011;19751;40.274;18.268;2023-03-01T07:50:33;65.55;;;25.23;;
33403;SDS011;19751;40.274;18.268;2023-03-01T07:52:59;69.93;;;24.40;;
33403;SDS011;19751;40.274;18.268;2023-03-01T07:55:24;54.10;;;21.00;;
33403;SDS011;19751;40.274;18.268;2023-03-01T07:57:50;69.28;;;22.52;;
33403;SDS011;19751;40.274;18.268;2023-03-01T08:00:15;47.00;;;22.88;;
33403;SDS011;19751;40.274;18.268;2023-03-01T08:02:41;52.55;;;21.23;;
33403;SDS011;19751;40.274;18.268;2023-03-01T08:05:07;59.05;;;24.50;;
33403;SDS011;19751;40.274;18.268;2023-03-01T08:07:34;60.03;;;24.15;;
33403;SDS011;19751;40.274;18.268;2023-03-01T08:10:00;52.53;;;21.80;;
33403;SDS011;19751;40.274;18.268;2023-03-01T08:12:25;56.33;;;21.45;;
33403;SDS011;19751;40.274;18.268;2023-03-01T08:14:53;51.33;;;20.15;;
33403;SDS011;19751;40.274;18.268;2023-03-01T08:17:18;62.33;;;21.95;;
33403;SDS011;19751;40.274;18.268;2023-03-01T08:19:44;58.45;;;20.38;;
33403;SDS011;19751;40.274;18.268;2023-03-01T08:22:10;57.92;;;22.67;;
33403;SDS011;19751;40.274;18.268;2023-03-01T08:24:35;44.60;;;18.83;;
33403;SDS011;19751;40.274;18.268;2023-03-01T08:27:01;52.13;;;19.83;;
33403;SDS011;19751;40.274;18.268;2023-03-01T08:29:28;49.42;;;20.27;;
33403;SDS011;19751;40.274;18.268;2023-03-01T08:31:55;60.63;;;24.27;;
33403;SDS011;19751;40.274;18.268;2023-03-01T08:34:21;50.25;;;20.33;;
33403;SDS011;19751;40.274;18.268;2023-03-01T08:36:46;52.55;;;20.02;;
33403;SDS011;19751;40.274;18.268;2023-03-01T08:39:13;44.65;;;22.15;;
33403;SDS011;19751;40.274;18.268;2023-03-01T08:41:40;52.13;;;19.65;;
33403;SDS011;19751;40.274;18.268;2023-03-01T08:44:06;69.68;;;22.50;;
33403;SDS011;19751;40.274;18.268;2023-03-01T08:46:33;60.25;;;24.92;;
33403;SDS011;19751;40.274;18.268;2023-03-01T08:49:03;49.67;;;20.63;;
33403;SDS011;19751;40.274;18.268;2023-03-01T08:51:30;64.55;;;22.05;;
33403;SDS011;19751;40.274;18.268;2023-03-01T08:53:57;56.70;;;21.67;;
33403;SDS011;19751;40.274;18.268;2023-03-01T08:56:23;69.30;;;19.40;;
33403;SDS011;19751;40.274;18.268;2023-03-01T08:58:49;59.40;;;21.77;;
33403;SDS011;19751;40.274;18.268;2023-03-01T09:01:16;72.03;;;24.90;;
33403;SDS011;19751;40.274;18.268;2023-03-01T09:03:43;53.67;;;19.20;;
33403;SDS011;19751;40.274;18.268;2023-03-01T09:06:10;55.58;;;21.48;;
33403;SDS011;19751;40.274;18.268;2023-03-01T09:08:37;46.85;;;17.20;;
33403;SDS011;19751;40.274;18.268;2023-03-01T09:11:08;71.47;;;19.52;;
33403;SDS011;19751;40.274;18.268;2023-03-01T09:13:35;60.47;;;18.92;;
33403;SDS011;19751;40.274;18.268;2023-03-01T09:16:02;54.15;;;20.77;;
33403;SDS011;19751;40.274;18.268;2023-03-01T09:18:28;39.58;;;16.40;;
33403;SDS011;19751;40.274;18.268;2023-03-01T09:21:08;58.65;;;17.10;;
33403;SDS011;19751;40.274;18.268;2023-03-01T09:23:41;48.38;;;16.63;;
33403;SDS011;19751;40.274;18.268;2023-03-01T09:26:13;53.85;;;16.23;;
33403;SDS011;19751;40.274;18.268;2023-03-01T09:28:41;53.55;;;15.93;;
33403;SDS011;19751;40.274;18.268;2023-03-01T09:31:07;42.45;;;14.60;;
33403;SDS011;19751;40.274;18.268;2023-03-01T09:33:33;50.67;;;15.50;;
33403;SDS011;19751;40.274;18.268;2023-03-01T09:35:59;47.58;;;13.68;;
33403;SDS011;19751;40.274;18.268;2023-03-01T09:38:26;50.20;;;14.38;;
33403;SDS011;19751;40.274;18.268;2023-03-01T09:40:52;39.25;;;12.65;;
33403;SDS011;19751;40.274;18.268;2023-03-01T09:43:21;54.95;;;13.63;;
33403;SDS011;19751;40.274;18.268;2023-03-01T09:45:55;48.08;;;13.35;;
33403;SDS011;19751;40.274;18.268;2023-03-01T09:48:27;54.90;;;14.15;;
33403;SDS011;19751;40.274;18.268;2023-03-01T09:50:57;39.10;;;11.32;;
33403;SDS011;19751;40.274;18.268;2023-03-01T09:53:28;40.60;;;10.07;;
33403;SDS011;19751;40.274;18.268;2023-03-01T09:56:20;39.92;;;11.48;;
33403;SDS011;19751;40.274;18.268;2023-03-01T09:59:41;37.97;;;11.30;;
33403;SDS011;19751;40.274;18.268;2023-03-01T10:02:21;56.05;;;16.15;;
33403;SDS011;19751;40.274;18.268;2023-03-01T10:04:53;41.93;;;10.73;;
33403;SDS011;19751;40.274;18.268;2023-03-01T10:10:28;48.38;;;10.88;;
33403;SDS011;19751;40.274;18.268;2023-03-01T10:12:57;45.47;;;10.90;;
33403;SDS011;19751;40.274;18.268;2023-03-01T10:15:50;47.95;;;14.05;;
33403;SDS011;19751;40.274;18.268;2023-03-01T10:18:22;54.70;;;11.70;;
33403;SDS011;19751;40.274;18.268;2023-03-01T10:20:59;50.92;;;9.77;;
33403;SDS011;19751;40.274;18.268;2023-03-01T10:23:27;50.15;;;12.10;;
33403;SDS011;19751;40.274;18.268;2023-03-01T10:28:42;57.70;;;10.25;;
33403;SDS011;19751;40.274;18.268;2023-03-01T10:31:32;54.78;;;14.02;;
33403;SDS011;19751;40.274;18.268;2023-03-01T10:34:11;47.05;;;14.25;;
33403;SDS011;19751;40.274;18.268;2023-03-01T10:36:43;49.80;;;13.10;;
33403;SDS011;19751;40.274;18.268;2023-03-01T10:39:19;59.25;;;12.35;;
33403;SDS011;19751;40.274;18.268;2023-03-01T10:41:55;43.08;;;10.32;;
33403;SDS011;19751;40.274;18.268;2023-03-01T10:44:38;50.95;;;9.82;;
33403;SDS011;19751;40.274;18.268;2023-03-01T10:47:15;54.30;;;13.10;;
33403;SDS011;19751;40.274;18.268;2023-03-01T10:50:01;50.95;;;8.82;;
33403;SDS011;19751;40.274;18.268;2023-03-01T10:52:34;45.35;;;10.25;;
33403;SDS011;19751;40.274;18.268;2023-03-01T10:55:03;51.10;;;14.75;;
33403;SDS011;19751;40.274;18.268;2023-03-01T10:57:50;48.40;;;11.68;;
33403;SDS011;19751;40.274;18.268;2023-03-01T11:00:52;43.58;;;9.35;;
33403;SDS011;19751;40.274;18.268;2023-03-01T11:05:54;54.95;;;19.20;;
33403;SDS011;19751;40.274;18.268;2023-03-01T11:08:30;52.92;;;14.13;;
33403;SDS011;19751;40.274;18.268;2023-03-01T11:11:04;56.83;;;14.10;;
33403;SDS011;19751;40.274;18.268;2023-03-01T11:13:52;54.42;;;12.38;;
33403;SDS011;19751;40.274;18.268;2023-03-01T11:16:29;47.65;;;10.45;;
33403;SDS011;19751;40.274;18.268;2023-03-01T11:21:34;52.80;;;11.00;;
33403;SDS011;19751;40.274;18.268;2023-03-01T11:24:03;49.95;;;8.57;;
33403;SDS011;19751;40.274;18.268;2023-03-01T11:26:31;39.78;;;9.13;;
33403;SDS011;19751;40.274;18.268;2023-03-01T11:29:06;60.45;;;9.43;;
33403;SDS011;19751;40.274;18.268;2023-03-01T11:31:41;53.15;;;12.50;;
33403;SDS011;19751;40.274;18.268;2023-03-01T11:34:11;55.60;;;20.23;;
33403;SDS011;19751;40.274;18.268;2023-03-01T11:36:42;40.92;;;15.90;;
33403;SDS011;19751;40.274;18.268;2023-03-01T11:41:49;51.47;;;9.80;;
33403;SDS011;19751;40.274;18.268;2023-03-01T11:44:25;47.92;;;10.07;;
33403;SDS011;19751;40.274;18.268;2023-03-01T11:49:44;40.63;;;8.05;;
33403;SDS011;19751;40.274;18.268;2023-03-01T11:52:34;43.10;;;7.40;;
33403;SDS011;19751;40.274;18.268;2023-03-01T12:05:48;36.35;;;9.05;;
33403;SDS011;19751;40.274;18.268;2023-03-01T12:19:21;34.67;;;8.45;;
33403;SDS011;19751;40.274;18.268;2023-03-01T12:30:35;46.58;;;11.10;;
33403;SDS011;19751;40.274;18.268;2023-03-01T12:38:40;39.92;;;8.93;;
33403;SDS011;19751;40.274;18.268;2023-03-01T12:41:28;60.58;;;16.73;;
33403;SDS011;19751;40.274;18.268;2023-03-01T12:49:13;52.17;;;11.68;;
33403;SDS011;19751;40.274;18.268;2023-03-01T12:51:42;47.97;;;11.25;;
33403;SDS011;19751;40.274;18.268;2023-03-01T12:54:16;47.40;;;9.32;;
33403;SDS011;19751;40.274;18.268;2023-03-01T12:57:17;51.75;;;10.38;;
33403;SDS011;19751;40.274;18.268;2023-03-01T13:00:06;40.95;;;8.23;;
33403;SDS011;19751;40.274;18.268;2023-03-01T13:02:58;38.60;;;7.10;;
33403;SDS011;19751;40.274;18.268;2023-03-01T13:05:52;39.88;;;9.57;;
33403;SDS011;19751;40.274;18.268;2023-03-01T13:09:15;33.10;;;9.13;;
33403;SDS011;19751;40.274;18.268;2023-03-01T13:11:21;58.33;;;20.63;;
33403;SDS011;19751;40.274;18.268;2023-03-01T13:13:48;63.63;;;17.20;;
33403;SDS011;19751;40.274;18.268;2023-03-01T13:16:38;43.97;;;9.13;;
33403;SDS011;19751;40.274;18.268;2023-03-01T13:19:15;46.67;;;10.43;;
33403;SDS011;19751;40.274;18.268;2023-03-01T13:21:51;46.00;;;8.55;;
33403;SDS011;19751;40.274;18.268;2023-03-01T13:32:25;29.85;;;7.13;;
33403;SDS011;19751;40.274;18.268;2023-03-01T13:35:42;41.45;;;6.85;;
33403;SDS011;19751;40.274;18.268;2023-03-01T13:37:50;37.58;;;10.45;;
33403;SDS011;19751;40.274;18.268;2023-03-01T13:42:42;31.35;;;5.97;;
33403;SDS011;19751;40.274;18.268;2023-03-01T13:45:17;41.65;;;10.68;;
33403;SDS011;19751;40.274;18.268;2023-03-01T13:47:45;45.15;;;9.93;;
33403;SDS011;19751;40.274;18.268;2023-03-01T13:50:24;36.15;;;7.10;;
33403;SDS011;19751;40.274;18.268;2023-03-01T13:52:56;48.28;;;9.00;;
33403;SDS011;19751;40.274;18.268;2023-03-01T13:55:31;41.00;;;8.15;;
33403;SDS011;19751;40.274;18.268;2023-03-01T13:58:01;45.53;;;8.95;;
33403;SDS011;19751;40.274;18.268;2023-03-01T14:00:36;45.28;;;9.93;;
33403;SDS011;19751;40.274;18.268;2023-03-01T14:03:04;47.17;;;8.45;;
33403;SDS011;19751;40.274;18.268;2023-03-01T14:05:33;29.55;;;5.93;;
33403;SDS011;19751;40.274;18.268;2023-03-01T14:08:01;40.88;;;7.95;;
33403;SDS011;19751;40.274;18.268;2023-03-01T14:10:44;51.67;;;10.43;;
33403;SDS011;19751;40.274;18.268;2023-03-01T14:16:08;38.95;;;8.23;;
33403;SDS011;19751;40.274;18.268;2023-03-01T14:19:01;57.67;;;15.38;;
33403;SDS011;19751;40.274;18.268;2023-03-01T14:21:29;46.28;;;8.65;;
33403;SDS011;19751;40.274;18.268;2023-03-01T14:23:55;42.00;;;8.60;;
33403;SDS011;19751;40.274;18.268;2023-03-01T14:26:22;55.38;;;10.50;;
33403;SDS011;19751;40.274;18.268;2023-03-01T14:28:49;46.50;;;11.50;;
33403;SDS011;19751;40.274;18.268;2023-03-01T14:33:56;33.42;;;7.18;;
33403;SDS011;19751;40.274;18.268;2023-03-01T14:36:28;37.00;;;7.57;;
33403;SDS011;19751;40.274;18.268;2023-03-01T14:38:55;45.55;;;10.77;;
33403;SDS011;19751;40.274;18.268;2023-03-01T14:41:25;41.65;;;8.23;;
33403;SDS011;19751;40.274;18.268;2023-03-01T14:43:55;45.88;;;8.27;;
33403;SDS011;19751;40.274;18.268;2023-03-01T14:46:24;54.90;;;8.57;;
33403;SDS011;19751;40.274;18.268;2023-03-01T14:48:51;54.97;;;9.07;;
33403;SDS011;19751;40.274;18.268;2023-03-01T14:51:19;41.28;;;8.57;;
33403;SDS011;19751;40.274;18.268;2023-03-01T14:53:45;41.00;;;7.78;;
33403;SDS011;19751;40.274;18.268;2023-03-01T14:56:12;51.38;;;9.55;;
33403;SDS011;19751;40.274;18.268;2023-03-01T14:58:40;37.63;;;12.57;;
33403;SDS011;19751;40.274;18.268;2023-03-01T15:01:06;40.10;;;9.10;;
33403;SDS011;19751;40.274;18.268;2023-03-01T15:03:43;34.33;;;8.48;;
33403;SDS011;19751;40.274;18.268;2023-03-01T15:06:11;43.67;;;10.98;;
33403;SDS011;19751;40.274;18.268;2023-03-01T15:08:42;47.40;;;16.83;;
33403;SDS011;19751;40.274;18.268;2023-03-01T15:11:19;52.00;;;17.63;;
33403;SDS011;19751;40.274;18.268;2023-03-01T15:13:47;48.97;;;20.42;;
33403;SDS011;19751;40.274;18.268;2023-03-01T15:16:13;47.00;;;13.05;;
33403;SDS011;19751;40.274;18.268;2023-03-01T15:18:49;50.80;;;19.30;;
33403;SDS011;19751;40.274;18.268;2023-03-01T15:21:27;35.15;;;9.45;;
33403;SDS011;19751;40.274;18.268;2023-03-01T15:26:45;25.75;;;5.32;;
33403;SDS011;19751;40.274;18.268;2023-03-01T15:29:19;31.58;;;5.35;;
33403;SDS011;19751;40.274;18.268;2023-03-01T15:31:54;32.58;;;6.40;;
33403;SDS011;19751;40.274;18.268;2023-03-01T15:36:56;25.40;;;5.30;;
33403;SDS011;19751;40.274;18.268;2023-03-01T15:39:30;52.92;;;18.73;;
33403;SDS011;19751;40.274;18.268;2023-03-01T15:41:56;43.92;;;12.32;;
33403;SDS011;19751;40.274;18.268;2023-03-01T15:46:51;35.40;;;10.05;;
33403;SDS011;19751;40.274;18.268;2023-03-01T15:52:03;26.92;;;10.73;;
33403;SDS011;19751;40.274;18.268;2023-03-01T15:54:30;31.90;;;12.68;;
33403;SDS011;19751;40.274;18.268;2023-03-01T15:56:56;26.15;;;11.55;;
33403;SDS011;19751;40.274;18.268;2023-03-01T15:59:22;18.77;;;8.38;;
33403;SDS011;19751;40.274;18.268;2023-03-01T16:01:48;27.63;;;7.97;;
33403;SDS011;19751;40.274;18.268;2023-03-01T16:04:15;28.25;;;5.75;;
33403;SDS011;19751;40.274;18.268;2023-03-01T16:06:48;24.45;;;8.05;;